sensor_id;sensor_type;location;lat;lon;timestamp;P1;durP1;ratioP1;P2;durP2;ratioP2
71353;SDS011;59393;51.652;4.864;2022-12-13T00:01:24;25.50;;;7.63;;
71353;SDS011;59393;51.652;4.864;2022-12-13T00:03:56;19.02;;;6.82;;
71353;SDS011;59393;51.652;4.864;2022-12-13T00:06:22;18.90;;;8.02;;
71353;SDS011;59393;51.652;4.864;2022-12-13T00:08:48;23.52;;;9.00;;
71353;SDS011;59393;51.652;4.864;2022-12-13T00:11:14;21.08;;;8.82;;
71353;SDS011;59393;51.652;4.864;2022-12-13T00:13:41;25.23;;;8.43;;
71353;SDS011;59393;51.652;4.864;2022-12-13T00:16:10;19.27;;;6.57;;
71353;SDS011;59393;51.652;4.864;2022-12-13T00:18:36;21.55;;;8.07;;
71353;SDS011;59393;51.652;4.864;2022-12-13T00:21:08;20.48;;;7.88;;
71353;SDS011;59393;51.652;4.864;2022-12-13T00:23:34;24.98;;;7.90;;
71353;SDS011;59393;51.652;4.864;2022-12-13T00:26:04;16.60;;;6.53;;
71353;SDS011;59393;51.652;4.864;2022-12-13T00:28:30;15.45;;;6.57;;
71353;SDS011;59393;51.652;4.864;2022-12-13T00:30:57;17.25;;;7.03;;
71353;SDS011;59393;51.652;4.864;2022-12-13T00:33:23;18.80;;;6.93;;
71353;SDS011;59393;51.652;4.864;2022-12-13T00:35:49;17.50;;;6.45;;
71353;SDS011;59393;51.652;4.864;2022-12-13T00:38:15;18.03;;;6.40;;
71353;SDS011;59393;51.652;4.864;2022-12-13T00:40:41;18.50;;;6.65;;
71353;SDS011;59393;51.652;4.864;2022-12-13T00:43:07;20.23;;;7.50;;
71353;SDS011;59393;51.652;4.864;2022-12-13T00:45:33;19.88;;;6.95;;
71353;SDS011;59393;51.652;4.864;2022-12-13T00:47:59;21.67;;;6.35;;
71353;SDS011;59393;51.652;4.864;2022-12-13T00:50:25;17.25;;;6.47;;
71353;SDS011;59393;51.652;4.864;2022-12-13T00:52:51;14.13;;;6.05;;
71353;SDS011;59393;51.652;4.864;2022-12-13T00:55:17;19.05;;;6.28;;
71353;SDS011;59393;51.652;4.864;2022-12-13T00:57:43;22.45;;;7.60;;
71353;SDS011;59393;51.652;4.864;2022-12-13T01:00:09;18.27;;;7.57;;
71353;SDS011;59393;51.652;4.864;2022-12-13T01:02:36;16.90;;;6.28;;
71353;SDS011;59393;51.652;4.864;2022-12-13T01:05:02;17.60;;;5.90;;
71353;SDS011;59393;51.652;4.864;2022-12-13T01:07:28;19.75;;;7.25;;
71353;SDS011;59393;51.652;4.864;2022-12-13T01:09:56;14.93;;;5.13;;
71353;SDS011;59393;51.652;4.864;2022-12-13T01:12:22;15.80;;;6.43;;
71353;SDS011;59393;51.652;4.864;2022-12-13T01:14:48;17.73;;;6.00;;
71353;SDS011;59393;51.652;4.864;2022-12-13T01:17:14;19.35;;;6.75;;
71353;SDS011;59393;51.652;4.864;2022-12-13T01:19:40;17.90;;;6.77;;
71353;SDS011;59393;51.652;4.864;2022-12-13T01:22:06;16.90;;;6.15;;
71353;SDS011;59393;51.652;4.864;2022-12-13T01:24:33;16.08;;;6.53;;
71353;SDS011;59393;51.652;4.864;2022-12-13T01:26:59;13.55;;;5.93;;
71353;SDS011;59393;51.652;4.864;2022-12-13T01:29:25;13.67;;;5.57;;
71353;SDS011;59393;51.652;4.864;2022-12-13T01:31:51;15.20;;;6.13;;
71353;SDS011;59393;51.652;4.864;2022-12-13T01:34:19;20.50;;;6.15;;
71353;SDS011;59393;51.652;4.864;2022-12-13T01:36:45;12.65;;;5.85;;
71353;SDS011;59393;51.652;4.864;2022-12-13T01:39:17;17.15;;;5.93;;
71353;SDS011;59393;51.652;4.864;2022-12-13T01:41:47;18.73;;;5.73;;
71353;SDS011;59393;51.652;4.864;2022-12-13T01:46:58;17.08;;;7.07;;
71353;SDS011;59393;51.652;4.864;2022-12-13T01:49:25;18.17;;;6.78;;
71353;SDS011;59393;51.652;4.864;2022-12-13T01:51:51;17.02;;;6.45;;
71353;SDS011;59393;51.652;4.864;2022-12-13T01:54:20;14.53;;;5.93;;
71353;SDS011;59393;51.652;4.864;2022-12-13T01:56:48;15.45;;;6.00;;
71353;SDS011;59393;51.652;4.864;2022-12-13T01:59:16;14.70;;;5.93;;
71353;SDS011;59393;51.652;4.864;2022-12-13T02:01:43;11.80;;;4.78;;
71353;SDS011;59393;51.652;4.864;2022-12-13T02:04:09;19.75;;;6.65;;
71353;SDS011;59393;51.652;4.864;2022-12-13T02:06:36;18.13;;;6.80;;
71353;SDS011;59393;51.652;4.864;2022-12-13T02:09:04;15.52;;;5.88;;
71353;SDS011;59393;51.652;4.864;2022-12-13T02:11:30;14.57;;;5.97;;
71353;SDS011;59393;51.652;4.864;2022-12-13T02:13:57;17.73;;;7.18;;
71353;SDS011;59393;51.652;4.864;2022-12-13T02:21:44;18.15;;;6.22;;
71353;SDS011;59393;51.652;4.864;2022-12-13T02:24:31;18.45;;;6.07;;
71353;SDS011;59393;51.652;4.864;2022-12-13T02:27:21;15.63;;;6.32;;
71353;SDS011;59393;51.652;4.864;2022-12-13T02:32:44;17.93;;;5.50;;
71353;SDS011;59393;51.652;4.864;2022-12-13T02:35:16;18.48;;;7.70;;
71353;SDS011;59393;51.652;4.864;2022-12-13T02:37:50;18.88;;;6.53;;
71353;SDS011;59393;51.652;4.864;2022-12-13T02:40:22;18.20;;;6.57;;
71353;SDS011;59393;51.652;4.864;2022-12-13T02:42:53;15.63;;;6.28;;
71353;SDS011;59393;51.652;4.864;2022-12-13T02:45:24;15.23;;;6.17;;
71353;SDS011;59393;51.652;4.864;2022-12-13T02:47:53;15.05;;;6.10;;
71353;SDS011;59393;51.652;4.864;2022-12-13T02:50:20;21.42;;;8.50;;
71353;SDS011;59393;51.652;4.864;2022-12-13T02:52:47;15.88;;;5.90;;
71353;SDS011;59393;51.652;4.864;2022-12-13T02:55:14;25.45;;;7.07;;
71353;SDS011;59393;51.652;4.864;2022-12-13T02:57:42;15.63;;;6.93;;
71353;SDS011;59393;51.652;4.864;2022-12-13T03:00:18;19.85;;;6.35;;
71353;SDS011;59393;51.652;4.864;2022-12-13T03:03:00;16.83;;;6.75;;
71353;SDS011;59393;51.652;4.864;2022-12-13T03:11:02;22.43;;;6.90;;
71353;SDS011;59393;51.652;4.864;2022-12-13T03:13:32;21.52;;;6.30;;
71353;SDS011;59393;51.652;4.864;2022-12-13T03:18:43;15.48;;;5.85;;
71353;SDS011;59393;51.652;4.864;2022-12-13T03:21:09;16.10;;;6.63;;
71353;SDS011;59393;51.652;4.864;2022-12-13T03:23:36;15.27;;;5.93;;
71353;SDS011;59393;51.652;4.864;2022-12-13T03:26:10;22.95;;;6.72;;
71353;SDS011;59393;51.652;4.864;2022-12-13T03:28:37;15.55;;;6.60;;
71353;SDS011;59393;51.652;4.864;2022-12-13T03:31:03;16.73;;;6.15;;
71353;SDS011;59393;51.652;4.864;2022-12-13T03:33:30;16.60;;;6.78;;
71353;SDS011;59393;51.652;4.864;2022-12-13T03:35:56;14.67;;;5.77;;
71353;SDS011;59393;51.652;4.864;2022-12-13T03:38:22;18.02;;;6.35;;
71353;SDS011;59393;51.652;4.864;2022-12-13T03:40:56;15.30;;;5.90;;
71353;SDS011;59393;51.652;4.864;2022-12-13T03:43:23;22.77;;;7.70;;
71353;SDS011;59393;51.652;4.864;2022-12-13T03:45:50;18.33;;;6.70;;
71353;SDS011;59393;51.652;4.864;2022-12-13T03:48:16;15.30;;;6.23;;
71353;SDS011;59393;51.652;4.864;2022-12-13T03:50:42;18.27;;;6.35;;
71353;SDS011;59393;51.652;4.864;2022-12-13T03:53:08;20.20;;;6.60;;
71353;SDS011;59393;51.652;4.864;2022-12-13T03:55:34;16.40;;;6.28;;
71353;SDS011;59393;51.652;4.864;2022-12-13T03:58:00;18.83;;;6.38;;
71353;SDS011;59393;51.652;4.864;2022-12-13T04:00:26;29.20;;;6.00;;
71353;SDS011;59393;51.652;4.864;2022-12-13T04:02:52;16.38;;;5.85;;
71353;SDS011;59393;51.652;4.864;2022-12-13T04:05:18;15.75;;;6.10;;
71353;SDS011;59393;51.652;4.864;2022-12-13T04:07:45;17.80;;;7.20;;
71353;SDS011;59393;51.652;4.864;2022-12-13T04:10:11;20.93;;;6.27;;
71353;SDS011;59393;51.652;4.864;2022-12-13T04:12:37;18.52;;;6.18;;
71353;SDS011;59393;51.652;4.864;2022-12-13T04:15:21;12.13;;;5.60;;
71353;SDS011;59393;51.652;4.864;2022-12-13T04:17:47;22.25;;;6.30;;
71353;SDS011;59393;51.652;4.864;2022-12-13T04:20:13;14.75;;;6.18;;
71353;SDS011;59393;51.652;4.864;2022-12-13T04:22:39;18.40;;;6.03;;
71353;SDS011;59393;51.652;4.864;2022-12-13T04:25:05;16.00;;;6.70;;
71353;SDS011;59393;51.652;4.864;2022-12-13T04:27:31;18.45;;;6.55;;
71353;SDS011;59393;51.652;4.864;2022-12-13T04:29:57;12.80;;;5.40;;
71353;SDS011;59393;51.652;4.864;2022-12-13T04:32:23;17.15;;;5.55;;
71353;SDS011;59393;51.652;4.864;2022-12-13T04:34:49;16.23;;;6.35;;
71353;SDS011;59393;51.652;4.864;2022-12-13T04:37:15;13.85;;;5.25;;
71353;SDS011;59393;51.652;4.864;2022-12-13T04:39:41;19.40;;;6.68;;
71353;SDS011;59393;51.652;4.864;2022-12-13T04:42:07;14.47;;;6.73;;
71353;SDS011;59393;51.652;4.864;2022-12-13T04:44:33;15.82;;;6.47;;
71353;SDS011;59393;51.652;4.864;2022-12-13T04:46:59;18.40;;;6.40;;
71353;SDS011;59393;51.652;4.864;2022-12-13T04:49:27;18.02;;;6.85;;
71353;SDS011;59393;51.652;4.864;2022-12-13T04:51:52;16.33;;;5.63;;
71353;SDS011;59393;51.652;4.864;2022-12-13T04:54:18;17.10;;;6.23;;
71353;SDS011;59393;51.652;4.864;2022-12-13T04:56:44;19.25;;;7.07;;
71353;SDS011;59393;51.652;4.864;2022-12-13T04:59:10;16.33;;;6.10;;
71353;SDS011;59393;51.652;4.864;2022-12-13T05:01:36;14.93;;;5.78;;
71353;SDS011;59393;51.652;4.864;2022-12-13T05:04:02;19.90;;;7.05;;
71353;SDS011;59393;51.652;4.864;2022-12-13T05:06:28;16.92;;;5.85;;
71353;SDS011;59393;51.652;4.864;2022-12-13T05:08:54;15.85;;;6.60;;
71353;SDS011;59393;51.652;4.864;2022-12-13T05:11:20;18.00;;;6.40;;
71353;SDS011;59393;51.652;4.864;2022-12-13T05:13:46;18.40;;;6.57;;
71353;SDS011;59393;51.652;4.864;2022-12-13T05:16:12;18.45;;;6.28;;
71353;SDS011;59393;51.652;4.864;2022-12-13T05:18:39;16.15;;;6.88;;
71353;SDS011;59393;51.652;4.864;2022-12-13T05:21:07;20.33;;;6.83;;
71353;SDS011;59393;51.652;4.864;2022-12-13T05:23:33;21.17;;;6.97;;
71353;SDS011;59393;51.652;4.864;2022-12-13T05:25:59;15.77;;;6.15;;
71353;SDS011;59393;51.652;4.864;2022-12-13T05:28:26;18.23;;;6.72;;
71353;SDS011;59393;51.652;4.864;2022-12-13T05:30:52;14.93;;;6.77;;
71353;SDS011;59393;51.652;4.864;2022-12-13T05:33:18;17.25;;;6.07;;
71353;SDS011;59393;51.652;4.864;2022-12-13T05:35:45;16.75;;;6.10;;
71353;SDS011;59393;51.652;4.864;2022-12-13T05:38:11;14.27;;;6.38;;
71353;SDS011;59393;51.652;4.864;2022-12-13T05:40:37;18.55;;;6.47;;
71353;SDS011;59393;51.652;4.864;2022-12-13T05:43:03;15.57;;;6.25;;
71353;SDS011;59393;51.652;4.864;2022-12-13T05:45:29;20.75;;;6.93;;
71353;SDS011;59393;51.652;4.864;2022-12-13T05:47:55;16.40;;;6.03;;
71353;SDS011;59393;51.652;4.864;2022-12-13T05:50:22;15.65;;;5.75;;
71353;SDS011;59393;51.652;4.864;2022-12-13T05:52:48;17.30;;;6.10;;
71353;SDS011;59393;51.652;4.864;2022-12-13T05:55:14;15.68;;;6.70;;
71353;SDS011;59393;51.652;4.864;2022-12-13T05:57:40;17.80;;;6.13;;
71353;SDS011;59393;51.652;4.864;2022-12-13T06:00:06;14.35;;;5.78;;
71353;SDS011;59393;51.652;4.864;2022-12-13T06:02:37;14.07;;;5.15;;
71353;SDS011;59393;51.652;4.864;2022-12-13T06:05:03;18.97;;;5.97;;
71353;SDS011;59393;51.652;4.864;2022-12-13T06:07:30;16.42;;;6.88;;
71353;SDS011;59393;51.652;4.864;2022-12-13T06:09:55;13.52;;;5.97;;
71353;SDS011;59393;51.652;4.864;2022-12-13T06:12:21;15.88;;;5.57;;
71353;SDS011;59393;51.652;4.864;2022-12-13T06:14:47;18.30;;;6.32;;
71353;SDS011;59393;51.652;4.864;2022-12-13T06:17:14;18.85;;;6.68;;
71353;SDS011;59393;51.652;4.864;2022-12-13T06:19:40;19.67;;;6.10;;
71353;SDS011;59393;51.652;4.864;2022-12-13T06:22:06;21.95;;;8.30;;
71353;SDS011;59393;51.652;4.864;2022-12-13T06:24:32;20.25;;;7.88;;
71353;SDS011;59393;51.652;4.864;2022-12-13T06:26:58;17.67;;;6.77;;
71353;SDS011;59393;51.652;4.864;2022-12-13T06:29:24;16.80;;;6.80;;
71353;SDS011;59393;51.652;4.864;2022-12-13T06:31:51;18.75;;;6.53;;
71353;SDS011;59393;51.652;4.864;2022-12-13T06:34:17;23.67;;;8.32;;
71353;SDS011;59393;51.652;4.864;2022-12-13T06:36:43;19.23;;;7.07;;
71353;SDS011;59393;51.652;4.864;2022-12-13T06:39:09;16.50;;;5.87;;
71353;SDS011;59393;51.652;4.864;2022-12-13T06:41:35;22.17;;;6.65;;
71353;SDS011;59393;51.652;4.864;2022-12-13T06:44:01;21.50;;;6.85;;
71353;SDS011;59393;51.652;4.864;2022-12-13T06:46:27;14.43;;;6.07;;
71353;SDS011;59393;51.652;4.864;2022-12-13T06:48:53;14.68;;;6.32;;
71353;SDS011;59393;51.652;4.864;2022-12-13T06:51:19;18.77;;;6.70;;
71353;SDS011;59393;51.652;4.864;2022-12-13T06:53:45;20.98;;;7.68;;
71353;SDS011;59393;51.652;4.864;2022-12-13T06:56:12;15.95;;;6.82;;
71353;SDS011;59393;51.652;4.864;2022-12-13T06:58:38;15.57;;;5.97;;
71353;SDS011;59393;51.652;4.864;2022-12-13T07:03:33;17.77;;;6.68;;
71353;SDS011;59393;51.652;4.864;2022-12-13T07:06:03;16.63;;;6.28;;
71353;SDS011;59393;51.652;4.864;2022-12-13T07:08:30;12.23;;;5.70;;
71353;SDS011;59393;51.652;4.864;2022-12-13T07:10:56;16.67;;;6.10;;
71353;SDS011;59393;51.652;4.864;2022-12-13T07:13:22;20.13;;;5.45;;
71353;SDS011;59393;51.652;4.864;2022-12-13T07:15:48;17.70;;;6.80;;
71353;SDS011;59393;51.652;4.864;2022-12-13T07:18:15;18.42;;;7.07;;
71353;SDS011;59393;51.652;4.864;2022-12-13T07:20:41;18.38;;;6.45;;
71353;SDS011;59393;51.652;4.864;2022-12-13T07:23:07;18.50;;;6.80;;
71353;SDS011;59393;51.652;4.864;2022-12-13T07:25:33;21.20;;;7.55;;
71353;SDS011;59393;51.652;4.864;2022-12-13T07:28:00;16.15;;;6.25;;
71353;SDS011;59393;51.652;4.864;2022-12-13T07:30:27;17.42;;;6.95;;
71353;SDS011;59393;51.652;4.864;2022-12-13T07:32:53;15.02;;;6.13;;
71353;SDS011;59393;51.652;4.864;2022-12-13T07:35:19;16.27;;;6.87;;
71353;SDS011;59393;51.652;4.864;2022-12-13T07:37:44;16.50;;;6.43;;
71353;SDS011;59393;51.652;4.864;2022-12-13T07:40:11;12.63;;;5.60;;
71353;SDS011;59393;51.652;4.864;2022-12-13T07:42:37;14.70;;;6.32;;
71353;SDS011;59393;51.652;4.864;2022-12-13T07:45:03;17.40;;;6.37;;
71353;SDS011;59393;51.652;4.864;2022-12-13T07:47:29;15.50;;;6.03;;
71353;SDS011;59393;51.652;4.864;2022-12-13T07:49:55;19.50;;;8.07;;
71353;SDS011;59393;51.652;4.864;2022-12-13T07:52:21;15.63;;;6.25;;
71353;SDS011;59393;51.652;4.864;2022-12-13T07:54:47;24.13;;;7.00;;
71353;SDS011;59393;51.652;4.864;2022-12-13T07:57:13;17.77;;;5.67;;
71353;SDS011;59393;51.652;4.864;2022-12-13T07:59:39;16.55;;;5.50;;
71353;SDS011;59393;51.652;4.864;2022-12-13T08:02:05;18.20;;;7.00;;
71353;SDS011;59393;51.652;4.864;2022-12-13T08:04:31;21.47;;;7.23;;
71353;SDS011;59393;51.652;4.864;2022-12-13T08:06:57;23.35;;;8.05;;
71353;SDS011;59393;51.652;4.864;2022-12-13T08:09:23;23.15;;;7.57;;
71353;SDS011;59393;51.652;4.864;2022-12-13T08:11:49;27.92;;;8.13;;
71353;SDS011;59393;51.652;4.864;2022-12-13T08:14:15;21.80;;;8.20;;
71353;SDS011;59393;51.652;4.864;2022-12-13T08:16:41;22.90;;;7.47;;
71353;SDS011;59393;51.652;4.864;2022-12-13T08:19:07;18.15;;;6.25;;
71353;SDS011;59393;51.652;4.864;2022-12-13T08:21:35;15.10;;;6.28;;
71353;SDS011;59393;51.652;4.864;2022-12-13T08:24:01;18.50;;;7.22;;
71353;SDS011;59393;51.652;4.864;2022-12-13T08:26:27;20.37;;;6.67;;
71353;SDS011;59393;51.652;4.864;2022-12-13T08:28:53;26.23;;;8.07;;
71353;SDS011;59393;51.652;4.864;2022-12-13T08:31:19;20.58;;;7.88;;
71353;SDS011;59393;51.652;4.864;2022-12-13T08:33:45;22.95;;;7.68;;
71353;SDS011;59393;51.652;4.864;2022-12-13T08:36:13;20.90;;;8.00;;
71353;SDS011;59393;51.652;4.864;2022-12-13T08:38:40;20.88;;;7.38;;
71353;SDS011;59393;51.652;4.864;2022-12-13T08:41:06;20.42;;;7.82;;
71353;SDS011;59393;51.652;4.864;2022-12-13T08:43:33;18.70;;;7.22;;
71353;SDS011;59393;51.652;4.864;2022-12-13T08:46:00;18.27;;;6.97;;
71353;SDS011;59393;51.652;4.864;2022-12-13T08:48:26;20.67;;;8.73;;
71353;SDS011;59393;51.652;4.864;2022-12-13T08:50:52;19.35;;;8.18;;
71353;SDS011;59393;51.652;4.864;2022-12-13T08:53:18;23.77;;;8.05;;
71353;SDS011;59393;51.652;4.864;2022-12-13T08:55:44;20.80;;;7.88;;
71353;SDS011;59393;51.652;4.864;2022-12-13T08:58:11;21.00;;;7.50;;
71353;SDS011;59393;51.652;4.864;2022-12-13T09:00:38;19.93;;;7.10;;
71353;SDS011;59393;51.652;4.864;2022-12-13T09:03:06;20.42;;;7.40;;
71353;SDS011;59393;51.652;4.864;2022-12-13T09:05:32;17.55;;;7.75;;
71353;SDS011;59393;51.652;4.864;2022-12-13T09:07:58;24.10;;;9.70;;
71353;SDS011;59393;51.652;4.864;2022-12-13T09:10:26;18.57;;;7.63;;
71353;SDS011;59393;51.652;4.864;2022-12-13T09:12:54;31.40;;;9.25;;
71353;SDS011;59393;51.652;4.864;2022-12-13T09:15:20;23.00;;;8.82;;
71353;SDS011;59393;51.652;4.864;2022-12-13T09:17:46;24.48;;;9.55;;
71353;SDS011;59393;51.652;4.864;2022-12-13T09:20:12;22.35;;;8.35;;
71353;SDS011;59393;51.652;4.864;2022-12-13T09:22:38;22.13;;;8.27;;
71353;SDS011;59393;51.652;4.864;2022-12-13T09:25:04;24.85;;;8.13;;
71353;SDS011;59393;51.652;4.864;2022-12-13T09:27:31;21.95;;;7.75;;
71353;SDS011;59393;51.652;4.864;2022-12-13T09:29:57;25.23;;;9.50;;
71353;SDS011;59393;51.652;4.864;2022-12-13T09:32:23;21.70;;;8.65;;
71353;SDS011;59393;51.652;4.864;2022-12-13T09:34:49;20.30;;;6.50;;
71353;SDS011;59393;51.652;4.864;2022-12-13T09:37:16;19.05;;;8.35;;
71353;SDS011;59393;51.652;4.864;2022-12-13T09:39:42;30.55;;;10.00;;
71353;SDS011;59393;51.652;4.864;2022-12-13T09:42:09;27.80;;;9.43;;
71353;SDS011;59393;51.652;4.864;2022-12-13T09:44:42;21.65;;;9.43;;
71353;SDS011;59393;51.652;4.864;2022-12-13T09:47:16;22.97;;;9.23;;
71353;SDS011;59393;51.652;4.864;2022-12-13T09:49:46;25.15;;;9.65;;
71353;SDS011;59393;51.652;4.864;2022-12-13T09:52:13;30.02;;;10.40;;
71353;SDS011;59393;51.652;4.864;2022-12-13T09:54:40;18.10;;;7.57;;
71353;SDS011;59393;51.652;4.864;2022-12-13T09:57:14;27.45;;;11.05;;
71353;SDS011;59393;51.652;4.864;2022-12-13T09:59:41;27.27;;;11.17;;
71353;SDS011;59393;51.652;4.864;2022-12-13T10:02:15;27.50;;;10.25;;
71353;SDS011;59393;51.652;4.864;2022-12-13T10:04:42;26.58;;;9.93;;
71353;SDS011;59393;51.652;4.864;2022-12-13T10:07:10;26.52;;;9.75;;
71353;SDS011;59393;51.652;4.864;2022-12-13T10:09:39;28.85;;;10.45;;
71353;SDS011;59393;51.652;4.864;2022-12-13T10:12:04;28.43;;;9.93;;
71353;SDS011;59393;51.652;4.864;2022-12-13T10:14:31;30.25;;;10.32;;
71353;SDS011;59393;51.652;4.864;2022-12-13T10:17:01;28.67;;;11.82;;
71353;SDS011;59393;51.652;4.864;2022-12-13T10:19:38;22.60;;;9.20;;
71353;SDS011;59393;51.652;4.864;2022-12-13T10:22:07;28.00;;;10.60;;
71353;SDS011;59393;51.652;4.864;2022-12-13T10:24:49;24.08;;;10.52;;
71353;SDS011;59393;51.652;4.864;2022-12-13T10:27:16;30.38;;;11.35;;
71353;SDS011;59393;51.652;4.864;2022-12-13T10:32:27;30.85;;;10.77;;
71353;SDS011;59393;51.652;4.864;2022-12-13T10:34:54;27.87;;;8.97;;
71353;SDS011;59393;51.652;4.864;2022-12-13T10:37:28;30.00;;;10.18;;
71353;SDS011;59393;51.652;4.864;2022-12-13T10:39:55;21.20;;;9.82;;
71353;SDS011;59393;51.652;4.864;2022-12-13T10:42:22;24.15;;;9.65;;
71353;SDS011;59393;51.652;4.864;2022-12-13T10:44:48;28.40;;;10.82;;
71353;SDS011;59393;51.652;4.864;2022-12-13T10:47:18;30.47;;;12.70;;
71353;SDS011;59393;51.652;4.864;2022-12-13T10:49:49;26.98;;;10.48;;
71353;SDS011;59393;51.652;4.864;2022-12-13T10:54:45;26.73;;;10.98;;
71353;SDS011;59393;51.652;4.864;2022-12-13T10:57:12;30.98;;;11.48;;
71353;SDS011;59393;51.652;4.864;2022-12-13T10:59:38;29.50;;;11.00;;
71353;SDS011;59393;51.652;4.864;2022-12-13T11:02:24;33.00;;;11.55;;
71353;SDS011;59393;51.652;4.864;2022-12-13T11:04:50;27.85;;;10.57;;
71353;SDS011;59393;51.652;4.864;2022-12-13T11:09:49;36.05;;;15.70;;
71353;SDS011;59393;51.652;4.864;2022-12-13T11:12:16;34.87;;;12.70;;
71353;SDS011;59393;51.652;4.864;2022-12-13T11:14:51;32.58;;;13.40;;
71353;SDS011;59393;51.652;4.864;2022-12-13T11:17:19;32.65;;;13.07;;
71353;SDS011;59393;51.652;4.864;2022-12-13T11:19:47;29.40;;;12.20;;
71353;SDS011;59393;51.652;4.864;2022-12-13T11:22:23;33.78;;;12.90;;
71353;SDS011;59393;51.652;4.864;2022-12-13T11:24:51;31.20;;;11.67;;
71353;SDS011;59393;51.652;4.864;2022-12-13T11:30:07;29.80;;;12.00;;
71353;SDS011;59393;51.652;4.864;2022-12-13T11:40:10;29.02;;;11.63;;
71353;SDS011;59393;51.652;4.864;2022-12-13T11:42:42;29.58;;;13.02;;
71353;SDS011;59393;51.652;4.864;2022-12-13T11:45:23;25.58;;;9.38;;
71353;SDS011;59393;51.652;4.864;2022-12-13T11:50:21;30.03;;;11.63;;
71353;SDS011;59393;51.652;4.864;2022-12-13T11:52:54;24.75;;;9.98;;
71353;SDS011;59393;51.652;4.864;2022-12-13T11:55:43;37.00;;;13.38;;
71353;SDS011;59393;51.652;4.864;2022-12-13T11:58:11;16.13;;;6.05;;
71353;SDS011;59393;51.652;4.864;2022-12-13T12:05:31;23.38;;;8.85;;
71353;SDS011;59393;51.652;4.864;2022-12-13T12:08:01;27.45;;;11.73;;
71353;SDS011;59393;51.652;4.864;2022-12-13T12:10:33;32.72;;;13.68;;
71353;SDS011;59393;51.652;4.864;2022-12-13T12:13:03;33.07;;;14.90;;
71353;SDS011;59393;51.652;4.864;2022-12-13T12:15:31;27.63;;;11.82;;
71353;SDS011;59393;51.652;4.864;2022-12-13T12:17:59;21.60;;;9.43;;
71353;SDS011;59393;51.652;4.864;2022-12-13T12:20:32;30.77;;;11.63;;
71353;SDS011;59393;51.652;4.864;2022-12-13T12:23:03;29.60;;;11.45;;
71353;SDS011;59393;51.652;4.864;2022-12-13T12:30:55;27.08;;;10.73;;
71353;SDS011;59393;51.652;4.864;2022-12-13T12:38:47;28.63;;;12.03;;
71353;SDS011;59393;51.652;4.864;2022-12-13T12:43:42;27.10;;;10.98;;
71353;SDS011;59393;51.652;4.864;2022-12-13T12:51:20;31.02;;;10.88;;
71353;SDS011;59393;51.652;4.864;2022-12-13T12:53:53;22.13;;;8.75;;
71353;SDS011;59393;51.652;4.864;2022-12-13T13:04:40;26.20;;;9.70;;
71353;SDS011;59393;51.652;4.864;2022-12-13T13:07:27;25.73;;;10.35;;
71353;SDS011;59393;51.652;4.864;2022-12-13T13:09:55;22.02;;;9.27;;
71353;SDS011;59393;51.652;4.864;2022-12-13T13:12:23;21.40;;;8.73;;
71353;SDS011;59393;51.652;4.864;2022-12-13T13:14:49;25.57;;;9.63;;
71353;SDS011;59393;51.652;4.864;2022-12-13T13:19:45;25.63;;;10.05;;
71353;SDS011;59393;51.652;4.864;2022-12-13T13:27:29;26.42;;;10.27;;
71353;SDS011;59393;51.652;4.864;2022-12-13T13:30:05;22.73;;;7.75;;
71353;SDS011;59393;51.652;4.864;2022-12-13T13:32:31;30.65;;;11.18;;
71353;SDS011;59393;51.652;4.864;2022-12-13T13:37:44;26.50;;;11.40;;
71353;SDS011;59393;51.652;4.864;2022-12-13T13:43:00;31.73;;;11.60;;
71353;SDS011;59393;51.652;4.864;2022-12-13T13:45:23;24.45;;;10.45;;
71353;SDS011;59393;51.652;4.864;2022-12-13T13:47:51;27.93;;;11.77;;
71353;SDS011;59393;51.652;4.864;2022-12-13T13:50:33;28.90;;;12.55;;
71353;SDS011;59393;51.652;4.864;2022-12-13T14:01:10;23.03;;;10.33;;
71353;SDS011;59393;51.652;4.864;2022-12-13T14:20:14;27.60;;;11.20;;
71353;SDS011;59393;51.652;4.864;2022-12-13T14:25:48;26.25;;;10.98;;
71353;SDS011;59393;51.652;4.864;2022-12-13T14:30:56;24.73;;;10.50;;
71353;SDS011;59393;51.652;4.864;2022-12-13T14:33:23;25.13;;;10.05;;
71353;SDS011;59393;51.652;4.864;2022-12-13T14:35:56;22.15;;;9.48;;
71353;SDS011;59393;51.652;4.864;2022-12-13T14:38:26;26.52;;;11.05;;
71353;SDS011;59393;51.652;4.864;2022-12-13T14:40:53;23.57;;;10.57;;
71353;SDS011;59393;51.652;4.864;2022-12-13T14:43:30;23.42;;;9.50;;
71353;SDS011;59393;51.652;4.864;2022-12-13T14:46:01;25.15;;;10.95;;
71353;SDS011;59393;51.652;4.864;2022-12-13T14:48:28;29.23;;;11.32;;
71353;SDS011;59393;51.652;4.864;2022-12-13T14:50:55;28.52;;;11.65;;
71353;SDS011;59393;51.652;4.864;2022-12-13T14:53:28;26.60;;;10.27;;
71353;SDS011;59393;51.652;4.864;2022-12-13T14:58:33;28.55;;;10.13;;
71353;SDS011;59393;51.652;4.864;2022-12-13T15:01:01;32.47;;;10.95;;
71353;SDS011;59393;51.652;4.864;2022-12-13T15:03:27;27.50;;;11.68;;
71353;SDS011;59393;51.652;4.864;2022-12-13T15:05:54;26.27;;;11.17;;
71353;SDS011;59393;51.652;4.864;2022-12-13T15:08:21;28.50;;;11.00;;
71353;SDS011;59393;51.652;4.864;2022-12-13T15:10:47;22.38;;;9.88;;
71353;SDS011;59393;51.652;4.864;2022-12-13T15:13:21;30.80;;;10.07;;
71353;SDS011;59393;51.652;4.864;2022-12-13T15:15:52;27.10;;;9.45;;
71353;SDS011;59393;51.652;4.864;2022-12-13T15:18:19;22.97;;;9.10;;
71353;SDS011;59393;51.652;4.864;2022-12-13T15:20:47;27.38;;;9.38;;
71353;SDS011;59393;51.652;4.864;2022-12-13T15:23:28;23.10;;;9.90;;
71353;SDS011;59393;51.652;4.864;2022-12-13T15:28:26;28.73;;;11.20;;
71353;SDS011;59393;51.652;4.864;2022-12-13T15:30:53;21.10;;;8.97;;
71353;SDS011;59393;51.652;4.864;2022-12-13T15:33:21;26.00;;;9.65;;
71353;SDS011;59393;51.652;4.864;2022-12-13T15:35:47;23.92;;;9.30;;
71353;SDS011;59393;51.652;4.864;2022-12-13T15:38:17;22.80;;;9.68;;
71353;SDS011;59393;51.652;4.864;2022-12-13T15:40:46;26.30;;;9.57;;
71353;SDS011;59393;51.652;4.864;2022-12-13T15:43:14;20.47;;;8.70;;
71353;SDS011;59393;51.652;4.864;2022-12-13T15:45:42;23.73;;;8.65;;
71353;SDS011;59393;51.652;4.864;2022-12-13T15:48:16;28.00;;;10.10;;
71353;SDS011;59393;51.652;4.864;2022-12-13T15:50:46;27.90;;;9.52;;
71353;SDS011;59393;51.652;4.864;2022-12-13T15:53:26;22.02;;;8.98;;
71353;SDS011;59393;51.652;4.864;2022-12-13T15:55:52;22.90;;;9.20;;
71353;SDS011;59393;51.652;4.864;2022-12-13T15:58:21;20.98;;;9.48;;
71353;SDS011;59393;51.652;4.864;2022-12-13T16:00:49;28.00;;;10.55;;
71353;SDS011;59393;51.652;4.864;2022-12-13T16:03:16;21.73;;;9.38;;
71353;SDS011;59393;51.652;4.864;2022-12-13T16:05:48;24.98;;;10.55;;
71353;SDS011;59393;51.652;4.864;2022-12-13T16:10:49;23.55;;;9.05;;
71353;SDS011;59393;51.652;4.864;2022-12-13T16:13:23;20.40;;;9.00;;
71353;SDS011;59393;51.652;4.864;2022-12-13T16:15:51;24.67;;;9.52;;
71353;SDS011;59393;51.652;4.864;2022-12-13T16:18:21;26.08;;;7.40;;
71353;SDS011;59393;51.652;4.864;2022-12-13T16:20:47;26.83;;;9.53;;
71353;SDS011;59393;51.652;4.864;2022-12-13T16:23:17;24.25;;;9.77;;
71353;SDS011;59393;51.652;4.864;2022-12-13T16:25:43;23.45;;;9.52;;
71353;SDS011;59393;51.652;4.864;2022-12-13T16:28:10;26.02;;;10.32;;
71353;SDS011;59393;51.652;4.864;2022-12-13T16:33:21;30.63;;;10.00;;
71353;SDS011;59393;51.652;4.864;2022-12-13T16:35:48;22.38;;;9.43;;
71353;SDS011;59393;51.652;4.864;2022-12-13T16:38:14;24.55;;;9.52;;
71353;SDS011;59393;51.652;4.864;2022-12-13T16:40:40;25.55;;;9.63;;
71353;SDS011;59393;51.652;4.864;2022-12-13T16:43:12;27.83;;;9.77;;